Weather at Dolphin Taweelah Receiving Facility Heliport

Public forecast

Using degrees Celsius for public forecast. Weather courtesy of forecast.io.

Closest aviation weather report (METAR) to Dolphin Taweelah Receiving Facility Heliport

Closest report is Abu Dhabi International Airport, 18.6 nm (34.5 km) S.

2024/06/13 11:00 (retrieved 27 minutes ago)

OMAA 131100Z 30012KT CAVOK 39/22 Q1000 NOSIG

Closest aviation forecast (TAF) to Dolphin Taweelah Receiving Facility Heliport

Closest forecast is Abu Dhabi International Airport, 18.6 nm (34.5 km) S.

2024/06/13 06:00 (retrieved 5 hours ago)

TAF OMAA 130500Z 1306/1412 24008KT 8000 NSC BECMG 1306/1308 30015KT BECMG 1317/1319 23005KT BECMG 1405/1407 32013KT